createdAt,value
2023-03-12T00:01:15.914Z,168.27
2023-03-12T00:04:22.107Z,171.07
2023-03-12T00:07:29.060Z,179.13
2023-03-12T00:10:38.575Z,195.88
2023-03-12T00:13:45.749Z,173.35
2023-03-12T00:16:51.744Z,161.50
2023-03-12T00:20:01.774Z,156.29
2023-03-12T00:23:08.003Z,143.25
2023-03-12T00:26:19.992Z,133.55
2023-03-12T00:29:26.077Z,125.93
2023-03-12T00:32:35.403Z,129.42
2023-03-12T00:35:42.414Z,127.22
2023-03-12T00:38:49.253Z,125.49
2023-03-12T00:41:57.780Z,140.13
2023-03-12T00:45:04.728Z,144.34
2023-03-12T00:48:11.226Z,119.12
2023-03-12T00:51:18.815Z,115.73
2023-03-12T00:54:25.883Z,118.82
2023-03-12T00:57:35.384Z,116.21
2023-03-12T01:00:41.460Z,111.83
2023-03-12T01:03:49.048Z,114.01
2023-03-12T01:06:56.082Z,108.67
2023-03-12T01:10:03.272Z,108.43
2023-03-12T01:13:12.210Z,113.29
2023-03-12T01:16:19.242Z,115.95
2023-03-12T01:19:25.333Z,123.12
2023-03-12T01:22:32.907Z,127.42
2023-03-12T01:25:39.707Z,126.19
2023-03-12T01:28:49.290Z,123.22
2023-03-12T01:31:55.329Z,123.99
2023-03-12T01:35:03.217Z,124.90
2023-03-12T01:38:09.891Z,123.76
2023-03-12T01:41:16.774Z,125.35
2023-03-12T01:44:25.326Z,123.23
2023-03-12T01:47:34.819Z,123.67
2023-03-12T01:50:46.067Z,127.52
2023-03-12T01:53:58.609Z,130.58
2023-03-12T01:57:09.357Z,129.63
2023-03-12T02:00:26.747Z,137.83
2023-03-12T02:03:38.406Z,149.49
2023-03-12T02:06:56.265Z,165.04
2023-03-12T02:10:02.452Z,192.96
2023-03-12T02:13:10.167Z,196.27
2023-03-12T02:16:19.100Z,184.85
2023-03-12T02:19:46.457Z,188.14
2023-03-12T02:23:05.899Z,179.77
2023-03-12T02:26:17.941Z,155.66
2023-03-12T02:29:25.654Z,158.35
2023-03-12T02:32:41.393Z,150.10
2023-03-12T02:35:51.042Z,143.63
2023-03-12T02:38:59.833Z,141.55
2023-03-12T02:42:09.955Z,153.28
2023-03-12T02:45:16.226Z,156.43
2023-03-12T02:48:23.211Z,171.80
2023-03-12T02:51:29.524Z,183.73
2023-03-12T02:54:36.342Z,188.52
2023-03-12T02:57:45.221Z,169.70
2023-03-12T03:00:54.506Z,161.73
2023-03-12T03:04:00.606Z,142.69
2023-03-12T03:07:12.687Z,125.71
2023-03-12T03:10:19.620Z,127.88
2023-03-12T03:13:29.208Z,123.64
2023-03-12T03:16:35.248Z,120.73
2023-03-12T03:19:42.289Z,129.62
2023-03-12T03:22:49.429Z,141.54
2023-03-12T03:25:56.766Z,140.35
2023-03-12T03:29:05.507Z,142.11
2023-03-12T03:32:12.412Z,140.97
2023-03-12T03:35:18.906Z,138.00
2023-03-12T03:38:26.660Z,154.20
2023-03-12T03:41:32.927Z,164.41
2023-03-12T03:44:42.521Z,169.18
2023-03-12T03:47:48.681Z,173.58
2023-03-12T03:50:55.655Z,164.14
2023-03-12T03:54:02.941Z,162.13
2023-03-12T03:57:10.353Z,158.50
2023-03-12T04:00:20.818Z,159.24
2023-03-12T04:03:30.895Z,163.75
2023-03-12T04:06:37.010Z,155.70
2023-03-12T04:09:49.328Z,152.03
2023-03-12T04:12:55.767Z,160.65
2023-03-12T04:16:05.640Z,160.25
2023-03-12T04:19:11.710Z,164.93
2023-03-12T04:22:18.684Z,171.23
2023-03-12T04:25:25.609Z,162.97
2023-03-12T04:28:33.599Z,158.88
2023-03-12T04:31:44.090Z,156.74
2023-03-12T04:34:51.114Z,150.70
2023-03-12T04:37:57.256Z,150.88
2023-03-12T04:41:21.022Z,153.26
2023-03-12T04:44:47.431Z,165.63
2023-03-12T04:47:57.568Z,161.19
2023-03-12T04:51:03.648Z,157.21
2023-03-12T04:54:12.471Z,159.00
2023-03-12T04:57:20.546Z,154.69
2023-03-12T05:00:28.389Z,162.81
2023-03-12T05:03:37.029Z,154.90
2023-03-12T05:06:46.462Z,154.31
2023-03-12T05:09:52.338Z,153.00
2023-03-12T05:12:59.238Z,151.03
2023-03-12T05:16:06.030Z,150.37
2023-03-12T05:19:21.777Z,151.32
2023-03-12T05:22:28.770Z,149.58
2023-03-12T05:25:35.733Z,148.02
2023-03-12T05:28:41.803Z,143.22
2023-03-12T05:31:52.031Z,137.11
2023-03-12T05:35:03.743Z,146.50
2023-03-12T05:38:10.858Z,231.45
2023-03-12T05:41:25.353Z,303.88
2023-03-12T05:44:35.835Z,312.93
2023-03-12T05:47:42.715Z,358.66
2023-03-12T05:50:52.051Z,356.51
2023-03-12T05:53:59.533Z,363.58
2023-03-12T05:57:06.460Z,323.66
2023-03-12T06:00:17.140Z,341.77
2023-03-12T06:03:33.910Z,410.51
2023-03-12T06:06:42.580Z,316.51
2023-03-12T06:09:49.437Z,307.66
2023-03-12T06:12:56.180Z,295.40
2023-03-12T06:16:07.412Z,256.83
2023-03-12T06:19:21.449Z,249.10
2023-03-12T06:22:32.455Z,260.33
2023-03-12T06:25:39.681Z,256.86
2023-03-12T06:28:48.954Z,255.67
2023-03-12T06:31:56.288Z,300.12
2023-03-12T06:35:04.796Z,305.74
2023-03-12T06:38:13.331Z,270.35
2023-03-12T06:41:24.229Z,279.89
2023-03-12T06:44:30.245Z,282.43
2023-03-12T06:47:37.143Z,254.07
2023-03-12T06:50:45.706Z,209.29
2023-03-12T06:53:55.146Z,234.84
2023-03-12T06:57:01.988Z,252.48
2023-03-12T07:00:19.133Z,287.57
2023-03-12T07:03:25.553Z,279.19
2023-03-12T07:06:32.293Z,265.07
2023-03-12T07:09:40.886Z,231.98
2023-03-12T07:12:48.274Z,228.41
2023-03-12T07:15:55.235Z,208.18
2023-03-12T07:19:02.120Z,199.45
2023-03-12T07:22:08.050Z,205.50
2023-03-12T07:25:19.112Z,197.24
2023-03-12T07:28:26.008Z,183.07
2023-03-12T07:31:32.904Z,190.59
2023-03-12T07:34:39.032Z,229.49
2023-03-12T07:37:45.922Z,218.91
2023-03-12T07:40:59.077Z,197.00
2023-03-12T07:44:06.068Z,228.62
2023-03-12T07:47:23.653Z,218.96
2023-03-12T07:50:35.890Z,200.40
2023-03-12T07:53:42.545Z,198.67
2023-03-12T07:56:52.167Z,212.93
2023-03-12T07:59:58.497Z,210.40
2023-03-12T08:03:05.386Z,198.04
2023-03-12T08:06:12.249Z,201.60
2023-03-12T08:09:19.450Z,240.70
2023-03-12T08:12:28.017Z,249.33
2023-03-12T08:15:35.222Z,209.92
2023-03-12T08:18:43.231Z,236.94
2023-03-12T08:21:50.324Z,261.72
2023-03-12T08:25:00.250Z,230.41
2023-03-12T08:28:14.819Z,229.39
2023-03-12T08:31:20.842Z,266.59
2023-03-12T08:34:27.555Z,268.23
2023-03-12T08:37:36.384Z,289.44
2023-03-12T08:40:43.234Z,242.95
2023-03-12T08:43:51.929Z,292.34
2023-03-12T08:46:58.925Z,171.11
2023-03-12T08:50:11.513Z,207.65
2023-03-12T08:53:21.298Z,199.28
2023-03-12T08:56:27.518Z,110.95
2023-03-12T08:59:37.313Z,115.03
2023-03-12T09:02:43.618Z,103.98
2023-03-12T09:05:52.196Z,118.50
2023-03-12T09:08:58.095Z,84.65
2023-03-12T09:12:18.067Z,144.49
2023-03-12T09:15:29.347Z,176.30
2023-03-12T09:18:39.977Z,145.58
2023-03-12T09:21:54.065Z,99.29
2023-03-12T09:25:00.972Z,123.00
2023-03-12T09:28:09.730Z,143.87
2023-03-12T09:31:24.780Z,116.79
2023-03-12T09:34:30.734Z,96.39
2023-03-12T09:37:38.495Z,97.33
2023-03-12T09:40:50.971Z,113.46
2023-03-12T09:44:05.763Z,116.94
2023-03-12T09:47:31.057Z,161.04
2023-03-12T09:50:44.014Z,88.61
2023-03-12T09:53:56.689Z,77.53
2023-03-12T09:57:14.478Z,77.84
2023-03-12T10:00:25.060Z,48.14
2023-03-12T10:04:10.007Z,68.41
2023-03-12T10:07:30.941Z,51.84
2023-03-12T10:10:59.672Z,64.28
2023-03-12T10:14:29.724Z,67.30
2023-03-12T10:17:59.132Z,66.26
2023-03-12T10:21:27.023Z,104.46
2023-03-12T10:24:54.491Z,53.14
2023-03-12T10:28:14.688Z,80.85
2023-03-12T10:31:29.479Z,107.31
2023-03-12T10:34:46.186Z,99.05
2023-03-12T10:38:01.307Z,103.05
2023-03-12T10:41:19.353Z,60.49
2023-03-12T10:44:28.673Z,60.83
2023-03-12T10:47:40.030Z,66.28
2023-03-12T10:50:46.998Z,67.77
2023-03-12T10:53:55.549Z,57.40
2023-03-12T10:57:02.990Z,76.29
2023-03-12T11:00:22.480Z,116.49
2023-03-12T11:03:30.230Z,73.09
2023-03-12T11:06:43.110Z,84.75
2023-03-12T11:10:18.965Z,75.56
2023-03-12T11:13:31.048Z,40.36
2023-03-12T11:16:37.904Z,34.00
2023-03-12T11:19:43.833Z,34.26
2023-03-12T11:22:53.045Z,33.11
2023-03-12T11:26:05.909Z,37.43
2023-03-12T11:29:28.366Z,78.05
2023-03-12T11:32:40.593Z,41.08
2023-03-12T11:36:11.561Z,34.34
2023-03-12T11:39:39.583Z,50.94
2023-03-12T11:43:39.927Z,35.66
2023-03-12T11:47:18.155Z,26.29
2023-03-12T11:50:50.231Z,39.32
2023-03-12T11:54:33.114Z,55.48
2023-03-12T11:58:02.630Z,73.05
2023-03-12T12:01:22.360Z,61.21
2023-03-12T12:05:09.524Z,81.77
2023-03-12T12:08:56.812Z,33.88
2023-03-12T12:12:24.464Z,39.34
2023-03-12T12:15:49.899Z,39.28
2023-03-12T12:19:21.152Z,43.69
2023-03-12T12:22:55.684Z,35.92
2023-03-12T12:26:14.945Z,47.18
2023-03-12T12:29:54.032Z,81.02
2023-03-12T12:33:27.797Z,44.85
2023-03-12T12:36:39.389Z,39.39
2023-03-12T12:40:01.356Z,68.01
2023-03-12T12:43:30.961Z,85.42
2023-03-12T12:46:45.514Z,55.07
2023-03-12T12:50:02.417Z,27.67
2023-03-12T12:53:26.252Z,61.10
2023-03-12T12:56:47.624Z,63.79
2023-03-12T13:00:31.120Z,73.28
2023-03-12T13:03:37.569Z,45.15
2023-03-12T13:07:07.588Z,33.22
2023-03-12T13:10:53.375Z,52.23
2023-03-12T13:14:25.731Z,60.85
2023-03-12T13:17:39.130Z,74.77
2023-03-12T13:21:11.790Z,75.30
2023-03-12T13:24:34.658Z,88.49
2023-03-12T13:27:44.099Z,83.79
2023-03-12T13:30:53.611Z,94.76
2023-03-12T13:34:18.376Z,90.39
2023-03-12T13:37:51.221Z,108.37
2023-03-12T13:41:03.870Z,101.75
2023-03-12T13:44:34.279Z,94.74
2023-03-12T13:47:47.561Z,67.42
2023-03-12T13:50:58.981Z,77.54
2023-03-12T13:54:08.708Z,83.21
2023-03-12T13:57:36.749Z,77.07
2023-03-12T14:00:57.016Z,81.96
2023-03-12T14:04:10.789Z,62.64
2023-03-12T14:07:52.828Z,66.00
2023-03-12T14:11:33.659Z,85.50
2023-03-12T14:15:13.226Z,99.55
2023-03-12T14:18:27.220Z,101.46
2023-03-12T14:21:41.644Z,93.66
2023-03-12T14:24:59.254Z,91.88
2023-03-12T14:28:14.332Z,97.87
2023-03-12T14:31:29.054Z,81.45
2023-03-12T14:34:48.216Z,75.54
2023-03-12T14:38:06.260Z,81.98
2023-03-12T14:41:23.003Z,85.94
2023-03-12T14:44:32.732Z,94.48
2023-03-12T14:47:49.002Z,89.71
2023-03-12T14:50:56.420Z,89.45
2023-03-12T14:54:07.102Z,80.33
2023-03-12T14:57:24.739Z,86.04
2023-03-12T15:00:32.134Z,91.76
2023-03-12T15:03:49.290Z,93.91
2023-03-12T15:07:04.984Z,83.60
2023-03-12T15:10:25.394Z,99.07
2023-03-12T15:13:32.446Z,101.97
2023-03-12T15:16:39.765Z,98.62
2023-03-12T15:19:52.022Z,100.19
2023-03-12T15:22:59.251Z,95.97
2023-03-12T15:26:15.120Z,118.64
2023-03-12T15:29:30.451Z,115.72
2023-03-12T15:32:37.505Z,120.22
2023-03-12T15:36:04.950Z,108.51
2023-03-12T15:39:32.872Z,107.26
2023-03-12T15:42:53.022Z,96.75
2023-03-12T15:46:05.511Z,115.90
2023-03-12T15:49:29.500Z,114.81
2023-03-12T15:52:40.034Z,144.09
2023-03-12T15:55:52.768Z,120.94
2023-03-12T15:59:23.151Z,113.97
2023-03-12T16:02:39.418Z,105.64
2023-03-12T16:05:47.663Z,159.22
2023-03-12T16:09:03.870Z,200.33
2023-03-12T16:12:14.440Z,163.49
2023-03-12T16:15:29.408Z,209.76
2023-03-12T16:18:36.255Z,220.12
2023-03-12T16:21:42.231Z,225.67
2023-03-12T16:24:51.918Z,193.63
2023-03-12T16:28:03.788Z,179.73
2023-03-12T16:31:18.112Z,169.96
2023-03-12T16:34:24.153Z,150.44
2023-03-12T16:37:32.249Z,121.63
2023-03-12T16:40:46.102Z,120.75
2023-03-12T16:43:57.060Z,113.30
2023-03-12T16:47:10.212Z,106.75
2023-03-12T16:50:28.004Z,142.86
2023-03-12T16:53:33.837Z,137.15
2023-03-12T16:56:51.243Z,129.63
2023-03-12T16:59:57.750Z,120.44
2023-03-12T17:03:08.641Z,134.48
2023-03-12T17:06:21.866Z,162.24
2023-03-12T17:09:28.614Z,175.06
2023-03-12T17:12:42.493Z,170.82
2023-03-12T17:15:51.708Z,172.75
2023-03-12T17:18:59.398Z,170.22
2023-03-12T17:22:09.161Z,164.38
2023-03-12T17:25:26.260Z,180.60
2023-03-12T17:28:36.072Z,189.16
2023-03-12T17:31:45.591Z,184.85
2023-03-12T17:35:10.234Z,176.42
2023-03-12T17:38:28.995Z,173.85
2023-03-12T17:41:43.028Z,161.99
2023-03-12T17:44:51.933Z,152.28
2023-03-12T17:47:58.950Z,150.74
2023-03-12T17:51:14.716Z,162.43
2023-03-12T17:54:22.273Z,180.09
2023-03-12T17:57:30.321Z,170.88
2023-03-12T18:00:40.176Z,166.66
2023-03-12T18:03:50.290Z,172.87
2023-03-12T18:07:24.813Z,208.06
2023-03-12T18:10:32.353Z,216.00
2023-03-12T18:13:42.833Z,199.88
2023-03-12T18:16:56.273Z,178.24
2023-03-12T18:20:08.541Z,187.72
2023-03-12T18:23:14.557Z,161.53
2023-03-12T18:26:21.566Z,147.14
2023-03-12T18:29:27.807Z,148.75
2023-03-12T18:32:39.285Z,132.00
2023-03-12T18:35:49.857Z,145.42
2023-03-12T18:38:59.692Z,180.66
2023-03-12T18:42:05.746Z,201.65
2023-03-12T18:45:13.828Z,196.18
2023-03-12T18:48:22.432Z,202.78
2023-03-12T18:51:29.300Z,181.75
2023-03-12T18:54:40.631Z,181.14
2023-03-12T18:57:53.463Z,176.30
2023-03-12T19:01:15.300Z,177.78
2023-03-12T19:04:38.695Z,164.68
2023-03-12T19:07:45.232Z,165.83
2023-03-12T19:10:52.156Z,189.08
2023-03-12T19:13:58.243Z,199.86
2023-03-12T19:17:05.100Z,205.04
2023-03-12T19:20:16.414Z,189.86
2023-03-12T19:23:23.585Z,192.20
2023-03-12T19:26:29.694Z,192.87
2023-03-12T19:29:36.670Z,189.78
2023-03-12T19:32:44.477Z,191.60
2023-03-12T19:36:00.068Z,198.04
2023-03-12T19:39:15.195Z,197.86
2023-03-12T19:42:27.652Z,208.44
2023-03-12T19:45:40.320Z,217.66
2023-03-12T19:48:52.514Z,167.09
2023-03-12T19:52:01.154Z,161.20
2023-03-12T19:55:21.193Z,163.02
2023-03-12T19:58:33.264Z,161.37
2023-03-12T20:01:43.255Z,147.71
2023-03-12T20:04:49.566Z,140.34
2023-03-12T20:07:59.006Z,141.57
2023-03-12T20:11:07.222Z,142.33
2023-03-12T20:14:14.054Z,138.52
2023-03-12T20:17:20.123Z,136.17
2023-03-12T20:20:27.824Z,131.16
2023-03-12T20:23:41.122Z,128.71
2023-03-12T20:26:48.020Z,127.75
2023-03-12T20:29:56.122Z,130.40
2023-03-12T20:33:03.353Z,128.29
2023-03-12T20:36:11.930Z,132.15
2023-03-12T20:39:21.859Z,125.71
2023-03-12T20:42:27.997Z,126.37
2023-03-12T20:45:36.480Z,125.50
2023-03-12T20:48:45.551Z,138.79
2023-03-12T20:51:52.347Z,144.07
2023-03-12T20:55:00.997Z,144.85
2023-03-12T20:58:13.989Z,174.13
2023-03-12T21:01:20.103Z,188.61
2023-03-12T21:04:28.541Z,190.28
2023-03-12T21:07:37.234Z,205.12
2023-03-12T21:10:55.268Z,212.59
2023-03-12T21:14:02.155Z,240.33
2023-03-12T21:17:13.578Z,198.30
2023-03-12T21:20:19.610Z,188.29
2023-03-12T21:23:26.417Z,209.94
2023-03-12T21:26:35.171Z,206.06
2023-03-12T21:29:42.009Z,187.51
2023-03-12T21:32:53.193Z,174.79
2023-03-12T21:36:00.228Z,166.24
2023-03-12T21:39:06.429Z,171.49
2023-03-12T21:42:15.720Z,169.62
2023-03-12T21:45:22.366Z,157.53
2023-03-12T21:48:29.045Z,148.74
2023-03-12T21:51:34.928Z,143.98
2023-03-12T21:54:42.098Z,144.04
2023-03-12T21:57:51.191Z,141.51
2023-03-12T22:01:06.870Z,135.55
2023-03-12T22:04:12.802Z,130.24
2023-03-12T22:07:40.088Z,141.21
2023-03-12T22:10:46.102Z,148.84
2023-03-12T22:13:55.515Z,143.74
2023-03-12T22:17:01.589Z,121.61
2023-03-12T22:20:10.838Z,108.97
2023-03-12T22:23:16.743Z,106.03
2023-03-12T22:26:27.152Z,94.51
2023-03-12T22:29:36.378Z,96.24
2023-03-12T22:32:45.227Z,92.39
2023-03-12T22:35:52.102Z,94.26
2023-03-12T22:38:58.849Z,103.14
2023-03-12T22:42:04.694Z,94.15
2023-03-12T22:45:14.629Z,86.56
2023-03-12T22:48:20.582Z,79.95
2023-03-12T22:51:36.637Z,82.47
2023-03-12T22:54:42.779Z,95.12
2023-03-12T22:57:56.194Z,81.73
2023-03-12T23:01:08.904Z,89.50
2023-03-12T23:04:15.944Z,88.87
2023-03-12T23:07:21.925Z,79.62
2023-03-12T23:10:28.756Z,72.15
2023-03-12T23:13:38.781Z,81.20
2023-03-12T23:16:48.105Z,67.25
2023-03-12T23:19:54.053Z,78.17
2023-03-12T23:23:00.771Z,73.84
2023-03-12T23:26:06.892Z,76.06
2023-03-12T23:29:15.701Z,76.67
2023-03-12T23:32:29.225Z,71.81
2023-03-12T23:35:48.251Z,71.26
2023-03-12T23:38:54.701Z,62.82
2023-03-12T23:42:08.315Z,60.68
2023-03-12T23:45:19.353Z,60.41
2023-03-12T23:48:30.240Z,65.02
2023-03-12T23:51:37.679Z,71.15
2023-03-12T23:54:45.482Z,72.82
2023-03-12T23:57:51.389Z,78.96
